createdAt,value
2022-11-25T00:04:17.893Z,0
2022-11-25T00:09:35.240Z,0
2022-11-25T00:14:51.954Z,0
2022-11-25T00:19:18.810Z,0
2022-11-25T00:24:09.793Z,0
2022-11-25T00:29:18.239Z,0
2022-11-25T00:34:28.630Z,0
2022-11-25T00:39:38.400Z,0
2022-11-25T00:44:47.514Z,0
2022-11-25T00:49:57.312Z,0
2022-11-25T00:55:10.457Z,0
2022-11-25T01:00:27.903Z,0
2022-11-25T01:05:43.853Z,0
2022-11-25T01:11:00.219Z,0
2022-11-25T01:16:16.459Z,0
2022-11-25T01:21:31.905Z,0
2022-11-25T01:26:47.417Z,0
2022-11-25T01:32:03.669Z,0
2022-11-25T01:37:19.097Z,0
2022-11-25T01:41:45.290Z,0
2022-11-25T01:46:37.593Z,0
2022-11-25T01:51:47.340Z,0
2022-11-25T01:56:57.122Z,0
2022-11-25T02:02:07.113Z,0
2022-11-25T02:07:15.596Z,0
2022-11-25T02:12:23.849Z,0
2022-11-25T02:17:32.320Z,0
2022-11-25T02:22:42.095Z,0
2022-11-25T02:27:50.558Z,0
2022-11-25T02:33:00.331Z,0
2022-11-25T02:38:10.081Z,0
2022-11-25T02:43:18.559Z,0
2022-11-25T02:49:10.701Z,0
2022-11-25T02:53:36.794Z,0
2022-11-25T02:58:46.113Z,0
2022-11-25T03:04:04.195Z,0
2022-11-25T03:09:20.523Z,0
2022-11-25T03:14:38.446Z,0
2022-11-25T03:19:55.401Z,0
2022-11-25T03:25:14.121Z,0
2022-11-25T03:30:30.750Z,0
2022-11-25T03:35:47.240Z,0
2022-11-25T03:41:03.177Z,0
2022-11-25T03:45:30.097Z,0
2022-11-25T03:50:19.677Z,0
2022-11-25T03:55:28.822Z,0
2022-11-25T04:00:38.568Z,0
2022-11-25T04:05:47.676Z,0
2022-11-25T04:10:57.442Z,0
2022-11-25T04:16:07.215Z,0
2022-11-25T04:21:16.317Z,0
2022-11-25T05:14:42.451Z,0
2022-11-25T05:19:58.694Z,0
2022-11-25T05:25:14.775Z,0
2022-11-25T05:30:30.947Z,0
2022-11-25T05:34:55.853Z,0
2022-11-25T05:39:21.332Z,0
2022-11-25T05:44:37.593Z,0
2022-11-25T05:49:52.381Z,0
2022-11-25T05:54:18.538Z,0
2022-11-25T05:59:11.513Z,0
2022-11-25T06:04:19.995Z,0
2022-11-25T06:09:28.515Z,0
2022-11-25T06:14:37.845Z,0
2022-11-25T06:19:45.429Z,0
2022-11-25T06:25:04.353Z,0
2022-11-25T06:30:04.962Z,0
2022-11-25T06:35:14.767Z,0
2022-11-25T06:40:24.478Z,0
2022-11-25T06:45:36.168Z,0
2022-11-25T06:50:45.947Z,1
2022-11-25T06:55:55.697Z,2
2022-11-25T07:01:05.477Z,6
2022-11-25T07:06:15.845Z,8
2022-11-25T07:11:24.990Z,19
2022-11-25T07:21:43.202Z,44
2022-11-25T07:26:52.720Z,66
2022-11-25T07:37:23.740Z,94
2022-11-25T07:42:41.179Z,128
2022-11-25T07:57:45.160Z,87
2022-11-25T08:03:41.987Z,78
2022-11-25T08:08:57.514Z,105
2022-11-25T08:19:31.509Z,159
2022-11-25T08:24:44.094Z,114
2022-11-25T08:29:59.004Z,158
2022-11-25T08:34:24.477Z,149
2022-11-25T08:39:01.976Z,296
2022-11-25T08:44:11.665Z,333
2022-11-25T08:49:20.807Z,644
2022-11-25T08:54:35.260Z,906
2022-11-25T08:59:50.181Z,727
2022-11-25T09:05:06.295Z,390
2022-11-25T09:10:21.182Z,678
2022-11-25T09:15:37.628Z,497
2022-11-25T09:20:18.086Z,720
2022-11-25T09:25:27.209Z,709
2022-11-25T09:30:36.977Z,733
2022-11-25T09:35:46.076Z,729
2022-11-25T09:40:55.255Z,575
2022-11-25T09:46:05.179Z,730
2022-11-25T09:51:14.801Z,737
2022-11-25T09:56:23.838Z,739
2022-11-25T10:01:32.961Z,757
2022-11-25T10:06:41.621Z,596
2022-11-25T10:11:50.562Z,937
2022-11-25T10:17:03.234Z,950
2022-11-25T10:22:20.048Z,922
2022-11-25T10:27:36.202Z,837
2022-11-25T10:32:55.511Z,997
2022-11-25T10:38:11.397Z,639
2022-11-25T10:43:30.289Z,524
2022-11-25T10:54:01.657Z,469
2022-11-25T10:59:18.283Z,695
2022-11-25T11:04:35.717Z,912
2022-11-25T11:09:51.908Z,886
2022-11-25T11:15:08.843Z,840
2022-11-25T11:20:26.938Z,746
2022-11-25T11:24:51.236Z,614
2022-11-25T11:29:17.551Z,722
2022-11-25T11:34:34.991Z,693
2022-11-25T11:39:50.929Z,789
2022-11-25T11:45:06.914Z,795
2022-11-25T11:50:23.717Z,981
2022-11-25T11:55:41.159Z,980
2022-11-25T12:00:57.344Z,1051
2022-11-25T12:05:24.107Z,765
2022-11-25T12:10:30.593Z,681
2022-11-25T12:15:40.322Z,671
2022-11-25T12:20:49.518Z,657
2022-11-25T12:27:33.156Z,641
2022-11-25T12:30:03.155Z,641
2022-11-25T12:34:29.027Z,669
2022-11-25T12:39:47.157Z,824
2022-11-25T12:40:37.156Z,824
2022-11-25T12:45:13.130Z,669
2022-11-25T12:52:46.172Z,917
2022-11-25T13:00:58.149Z,745
2022-11-25T13:06:15.561Z,565
2022-11-25T13:13:51.811Z,617
2022-11-25T13:27:25.205Z,484
2022-11-25T13:28:15.211Z,484
2022-11-25T13:37:58.431Z,319
2022-11-25T13:38:48.428Z,319
2022-11-25T13:43:18.873Z,281
2022-11-25T13:44:05.709Z,281
2022-11-25T13:49:06.105Z,284
2022-11-25T14:04:22.955Z,261
2022-11-25T14:09:39.426Z,400
2022-11-25T14:14:59.291Z,400
2022-11-25T14:53:56.005Z,328
2022-11-25T15:04:01.143Z,106
2022-11-25T15:07:40.890Z,106
2022-11-25T15:12:54.331Z,60
2022-11-25T15:18:25.438Z,50
2022-11-25T15:20:14.013Z,50
2022-11-25T15:25:22.716Z,27
2022-11-25T15:33:07.713Z,19
2022-11-25T15:39:42.878Z,9
2022-11-25T15:40:08.245Z,9
2022-11-25T15:45:19.526Z,4
2022-11-25T15:45:39.544Z,4
2022-11-25T15:50:36.970Z,3
2022-11-25T15:50:56.940Z,3
2022-11-25T15:55:58.304Z,2
2022-11-25T15:56:41.577Z,2
2022-11-25T16:01:51.653Z,0
2022-11-25T16:21:29.851Z,0
2022-11-25T16:30:07.106Z,0
2022-11-25T16:38:38.884Z,0
2022-11-25T16:44:20.148Z,0
2022-11-25T16:49:29.764Z,0
2022-11-25T16:54:38.237Z,0
2022-11-25T16:59:48.005Z,0
2022-11-25T17:04:57.761Z,0
2022-11-25T17:10:08.811Z,0
2022-11-25T17:15:19.289Z,0
2022-11-25T17:20:28.317Z,0
2022-11-25T17:25:38.134Z,0
2022-11-25T17:30:47.199Z,0
2022-11-25T17:35:56.324Z,0
2022-11-25T17:41:04.827Z,0
2022-11-25T17:46:14.834Z,0
2022-11-25T17:51:55.080Z,0
2022-11-25T17:57:06.093Z,0
2022-11-25T18:02:16.159Z,0
2022-11-25T18:07:27.174Z,0
2022-11-25T18:12:36.854Z,0
2022-11-25T18:17:46.439Z,0
2022-11-25T18:22:58.746Z,0
2022-11-25T18:28:07.842Z,0
2022-11-25T18:33:18.263Z,0
2022-11-25T18:38:26.720Z,0
2022-11-25T18:43:35.838Z,0
2022-11-25T18:48:44.315Z,0
2022-11-25T18:54:00.217Z,0
2022-11-25T18:59:15.779Z,0
2022-11-25T19:04:36.927Z,0
2022-11-25T19:09:46.807Z,0
2022-11-25T19:20:18.484Z,0
2022-11-25T19:25:33.370Z,0
2022-11-25T19:30:48.226Z,0
2022-11-25T19:36:03.128Z,0
2022-11-25T19:41:18.609Z,0
2022-11-25T19:46:46.504Z,0
2022-11-25T19:51:49.694Z,0
2022-11-25T19:57:05.851Z,0
2022-11-25T20:02:22.058Z,0
2022-11-25T20:07:38.203Z,0
2022-11-25T20:12:03.024Z,0
2022-11-25T20:16:27.315Z,0
2022-11-25T20:21:43.438Z,0
2022-11-25T20:26:59.585Z,0
2022-11-25T20:32:13.919Z,0
2022-11-25T20:37:29.335Z,0
2022-11-25T20:42:45.496Z,0
2022-11-25T20:48:00.385Z,0
2022-11-25T20:53:16.540Z,0
2022-11-25T20:58:31.452Z,0
2022-11-25T21:03:47.645Z,0
2022-11-25T21:09:03.121Z,0
2022-11-25T21:13:28.660Z,0
2022-11-25T21:18:19.695Z,0
2022-11-25T21:23:28.804Z,0
2022-11-25T21:28:37.289Z,0
2022-11-25T21:33:47.077Z,0
2022-11-25T21:39:00.646Z,0
2022-11-25T21:44:09.114Z,0
2022-11-25T21:49:18.911Z,0
2022-11-25T21:54:27.367Z,0
2022-11-25T21:59:35.834Z,0
2022-11-25T22:04:45.634Z,0
2022-11-25T22:09:55.363Z,0
2022-11-25T22:15:03.840Z,0
2022-11-25T22:20:14.258Z,0
2022-11-25T22:25:23.363Z,0
2022-11-25T22:30:36.334Z,0
2022-11-25T22:35:46.092Z,0
2022-11-25T22:40:55.202Z,0
2022-11-25T22:46:05.389Z,0
2022-11-25T22:51:14.734Z,0
2022-11-25T22:56:25.122Z,0
2022-11-25T23:01:35.272Z,0
2022-11-25T23:06:47.391Z,0
2022-11-25T23:12:04.834Z,0
2022-11-25T23:17:21.208Z,0
2022-11-25T23:22:38.807Z,0
2022-11-25T23:27:55.227Z,0
2022-11-25T23:33:12.092Z,0
2022-11-25T23:38:28.346Z,0
2022-11-25T23:43:45.797Z,0
2022-11-25T23:49:01.812Z,0
2022-11-25T23:54:18.787Z,0
2022-11-25T23:58:46.698Z,0
